createdAt,value
2022-07-26T00:13:57.706Z,98747.28
2022-07-26T00:16:24.832Z,98758.41
2022-07-26T00:18:52.088Z,98757.16
2022-07-26T00:21:27.129Z,98757.56
2022-07-26T00:23:54.186Z,98755.19
2022-07-26T00:26:21.273Z,98755.28
2022-07-26T00:28:48.381Z,98763.66
2022-07-26T00:31:15.795Z,98758.31
2022-07-26T00:33:42.789Z,98748.25
2022-07-26T00:36:09.993Z,98753.56
2022-07-26T00:38:38.550Z,98758.00
2022-07-26T00:41:06.879Z,98753.06
2022-07-26T00:43:34.538Z,98752.72
2022-07-26T00:46:03.773Z,98750.72
2022-07-26T00:48:30.945Z,98744.91
2022-07-26T00:50:58.266Z,98748.81
2022-07-26T00:53:25.327Z,98748.03
2022-07-26T00:55:53.097Z,98747.75
2022-07-26T00:58:19.986Z,98731.53
2022-07-26T01:00:47.326Z,98747.44
2022-07-26T01:03:14.530Z,98743.13
2022-07-26T01:05:41.624Z,98719.59
2022-07-26T01:08:08.641Z,98733.84
2022-07-26T01:10:36.091Z,98731.38
2022-07-26T01:13:03.076Z,98742.53
2022-07-26T01:15:30.387Z,98740.59
2022-07-26T01:17:57.426Z,98734.63
2022-07-26T01:20:24.542Z,98737.84
2022-07-26T01:22:51.441Z,98742.94
2022-07-26T01:25:29.634Z,98727.97
2022-07-26T01:27:56.897Z,98739.91
2022-07-26T01:30:23.966Z,98742.00
2022-07-26T01:32:50.981Z,98741.97
2022-07-26T01:35:18.061Z,98735.00
2022-07-26T01:37:45.107Z,98736.22
2022-07-26T01:40:12.906Z,98741.50
2022-07-26T01:42:41.325Z,98735.50
2022-07-26T01:45:17.587Z,98730.41
2022-07-26T01:47:50.290Z,98738.44
2022-07-26T01:50:18.748Z,98742.78
2022-07-26T01:52:45.797Z,98741.72
2022-07-26T01:55:13.107Z,98740.28
2022-07-26T01:57:40.247Z,98735.31
2022-07-26T02:00:08.185Z,98735.84
2022-07-26T02:02:35.414Z,98738.63
2022-07-26T02:05:03.701Z,98737.41
2022-07-26T02:07:33.944Z,98732.25
2022-07-26T02:10:01.217Z,98728.28
2022-07-26T02:12:28.966Z,98738.88
2022-07-26T02:14:59.834Z,98738.28
2022-07-26T02:17:26.985Z,98741.72
2022-07-26T02:19:54.241Z,98739.53
2022-07-26T02:22:21.224Z,98736.75
2022-07-26T02:24:49.436Z,98733.56
2022-07-26T02:27:17.511Z,98733.31
2022-07-26T02:29:45.198Z,98731.38
2022-07-26T02:32:12.327Z,98730.53
2022-07-26T02:34:39.614Z,98727.16
2022-07-26T02:37:06.931Z,98731.53
2022-07-26T02:39:34.018Z,98728.69
2022-07-26T02:42:02.849Z,98730.28
2022-07-26T02:44:30.808Z,98712.25
2022-07-26T02:46:58.151Z,98724.72
2022-07-26T02:49:25.333Z,98717.53
2022-07-26T02:51:52.578Z,98726.28
2022-07-26T02:54:19.652Z,98714.94
2022-07-26T02:56:46.661Z,98716.06
2022-07-26T02:59:13.959Z,98705.41
2022-07-26T03:01:41.207Z,98707.81
2022-07-26T03:04:08.659Z,98695.53
2022-07-26T03:06:36.187Z,98717.25
2022-07-26T03:09:04.652Z,98715.53
2022-07-26T03:11:31.556Z,98710.25
2022-07-26T03:13:58.603Z,98713.50
2022-07-26T03:16:29.983Z,98712.25
2022-07-26T03:18:57.707Z,98716.59
2022-07-26T03:21:25.094Z,98719.13
2022-07-26T03:23:52.255Z,98724.44
2022-07-26T03:26:19.808Z,98722.81
2022-07-26T03:28:47.055Z,98729.53
2022-07-26T03:31:14.389Z,98713.09
2022-07-26T03:33:41.608Z,98721.75
2022-07-26T03:36:15.354Z,98724.44
2022-07-26T03:38:42.818Z,98719.56
2022-07-26T03:41:13.445Z,98705.41
2022-07-26T03:43:41.105Z,98722.75
2022-07-26T03:46:08.365Z,98723.69
2022-07-26T03:48:35.476Z,98710.34
2022-07-26T03:51:02.745Z,98710.78
2022-07-26T03:53:34.721Z,98699.72
2022-07-26T03:56:20.328Z,98715.16
2022-07-26T03:58:47.326Z,98706.47
2022-07-26T04:01:14.373Z,98697.81
2022-07-26T04:03:47.290Z,98708.88
2022-07-26T04:06:15.268Z,98711.16
2022-07-26T04:08:42.736Z,98705.34
2022-07-26T04:11:09.959Z,98702.19
2022-07-26T04:13:37.040Z,98704.25
2022-07-26T04:16:04.856Z,98700.09
2022-07-26T04:18:32.315Z,98696.13
2022-07-26T04:20:59.472Z,98696.59
2022-07-26T04:23:26.507Z,98684.22
2022-07-26T04:25:53.450Z,98690.72
2022-07-26T04:28:20.507Z,98687.25
2022-07-26T04:30:47.560Z,98665.91
2022-07-26T04:33:14.688Z,98682.28
2022-07-26T04:35:41.837Z,98678.66
2022-07-26T04:38:08.909Z,98666.06
2022-07-26T04:40:40.725Z,98661.97
2022-07-26T04:43:10.164Z,98670.25
2022-07-26T04:45:47.727Z,98661.16
2022-07-26T04:48:17.767Z,98674.81
2022-07-26T04:50:44.967Z,98678.59
2022-07-26T04:53:12.107Z,98678.63
2022-07-26T04:55:39.236Z,98665.28
2022-07-26T04:58:06.269Z,98680.38
2022-07-26T05:00:35.082Z,98668.03
2022-07-26T05:03:14.082Z,98648.06
2022-07-26T05:05:41.185Z,98653.50
2022-07-26T05:08:08.380Z,98672.00
2022-07-26T05:10:38.172Z,98665.28
2022-07-26T05:13:06.826Z,98670.00
2022-07-26T05:15:35.843Z,98670.47
2022-07-26T05:18:13.444Z,98668.53
2022-07-26T05:20:40.998Z,98669.78
2022-07-26T05:23:08.549Z,98659.88
2022-07-26T05:25:36.099Z,98657.28
2022-07-26T05:28:03.191Z,98647.94
2022-07-26T05:30:30.596Z,98654.16
2022-07-26T05:32:57.688Z,98652.63
2022-07-26T05:35:24.745Z,98653.84
2022-07-26T05:37:51.928Z,98659.78
2022-07-26T05:40:19.062Z,98656.03
2022-07-26T05:42:49.409Z,98649.16
2022-07-26T05:45:16.582Z,98658.53
2022-07-26T05:47:43.621Z,98657.19
2022-07-26T05:50:11.078Z,98655.63
2022-07-26T05:52:38.307Z,98642.84
2022-07-26T05:55:05.882Z,98656.66
2022-07-26T05:57:32.992Z,98654.13
2022-07-26T06:00:00.029Z,98654.88
2022-07-26T06:02:27.155Z,98652.66
2022-07-26T06:04:54.255Z,98652.41
2022-07-26T06:07:21.365Z,98652.19
2022-07-26T06:09:48.475Z,98659.81
2022-07-26T06:12:15.586Z,98657.03
2022-07-26T06:14:42.667Z,98652.31
2022-07-26T06:17:09.739Z,98655.75
2022-07-26T06:19:37.158Z,98655.19
2022-07-26T06:22:04.590Z,98654.50
2022-07-26T06:24:31.895Z,98657.75
2022-07-26T06:27:05.340Z,98660.03
2022-07-26T06:29:33.121Z,98654.50
2022-07-26T06:32:00.460Z,98643.44
2022-07-26T06:34:27.529Z,98662.91
2022-07-26T06:36:54.575Z,98641.31
2022-07-26T06:39:21.574Z,98642.06
2022-07-26T06:41:52.540Z,98629.44
2022-07-26T06:44:20.584Z,98625.25
2022-07-26T06:46:48.279Z,98626.41
2022-07-26T06:49:18.367Z,98629.75
2022-07-26T06:51:47.792Z,98640.84
2022-07-26T06:54:15.184Z,98636.56
2022-07-26T06:56:42.228Z,98637.47
2022-07-26T06:59:09.692Z,98626.59
2022-07-26T07:01:58.381Z,98625.81
2022-07-26T07:04:23.877Z,98625.06
2022-07-26T07:06:51.067Z,98629.63
2022-07-26T07:09:17.935Z,98630.47
2022-07-26T07:11:46.217Z,98631.63
2022-07-26T07:14:16.895Z,98634.84
2022-07-26T07:16:44.154Z,98631.31
2022-07-26T07:19:11.296Z,98615.53
2022-07-26T07:21:39.473Z,98628.19
2022-07-26T07:24:07.571Z,98610.03
2022-07-26T07:26:34.644Z,98628.56
2022-07-26T07:29:04.362Z,98618.88
2022-07-26T07:31:49.024Z,98619.13
2022-07-26T07:34:19.499Z,98623.72
2022-07-26T07:36:47.173Z,98623.41
2022-07-26T07:39:17.458Z,98617.41
2022-07-26T07:41:46.037Z,98628.13
2022-07-26T07:44:13.818Z,98620.47
2022-07-26T07:46:40.951Z,98619.19
2022-07-26T07:49:08.418Z,98608.88
2022-07-26T07:51:36.228Z,98606.41
2022-07-26T07:54:05.967Z,98613.91
2022-07-26T07:56:34.195Z,98610.56
2022-07-26T07:59:01.620Z,98605.00
2022-07-26T08:01:39.547Z,98612.03
2022-07-26T08:04:09.160Z,98596.03
2022-07-26T08:06:36.713Z,98605.94
2022-07-26T08:09:05.634Z,98600.66
2022-07-26T08:11:34.255Z,98602.44
2022-07-26T08:14:02.371Z,98587.09
2022-07-26T08:16:31.731Z,98588.34
2022-07-26T08:18:58.922Z,98597.81
2022-07-26T08:21:28.933Z,98593.47
2022-07-26T08:23:57.437Z,98593.00
2022-07-26T08:26:24.701Z,98597.03
2022-07-26T08:28:59.481Z,98590.22
2022-07-26T08:31:28.712Z,98587.94
2022-07-26T08:33:56.379Z,98590.47
2022-07-26T08:36:23.507Z,98577.44
2022-07-26T08:38:50.627Z,98584.53
2022-07-26T08:41:18.609Z,98573.22
2022-07-26T08:43:52.645Z,98585.03
2022-07-26T08:46:26.967Z,98582.38
2022-07-26T08:48:56.441Z,98578.09
2022-07-26T08:51:26.876Z,98581.78
2022-07-26T08:54:04.248Z,98584.34
2022-07-26T08:56:36.383Z,98581.50
2022-07-26T08:59:05.810Z,98578.41
2022-07-26T09:01:33.265Z,98586.97
2022-07-26T09:04:31.189Z,98574.84
2022-07-26T09:07:01.702Z,98574.59
2022-07-26T09:09:29.572Z,98580.59
2022-07-26T09:11:57.725Z,98577.91
2022-07-26T09:14:37.731Z,98578.44
2022-07-26T09:17:06.274Z,98584.72
2022-07-26T09:19:34.767Z,98569.44
2022-07-26T09:22:13.132Z,98576.91
2022-07-26T09:24:46.106Z,98562.00
2022-07-26T09:27:17.488Z,98574.56
2022-07-26T09:29:50.442Z,98562.72
2022-07-26T09:32:25.850Z,98569.66
2022-07-26T09:35:23.940Z,98564.03
2022-07-26T09:37:51.944Z,98561.66
2022-07-26T09:40:19.451Z,98571.47
2022-07-26T09:42:58.023Z,98564.44
2022-07-26T09:45:26.534Z,98562.41
2022-07-26T09:47:54.292Z,98564.69
2022-07-26T09:50:23.804Z,98570.13
2022-07-26T09:53:04.987Z,98566.91
2022-07-26T09:55:40.866Z,98562.06
2022-07-26T09:58:18.424Z,98548.63
2022-07-26T10:00:45.660Z,98555.81
2022-07-26T10:03:13.026Z,98557.03
2022-07-26T10:05:41.377Z,98553.34
2022-07-26T10:08:08.940Z,98551.09
2022-07-26T10:10:50.291Z,98548.94
2022-07-26T10:13:17.956Z,98542.72
2022-07-26T10:15:52.089Z,98535.16
2022-07-26T10:18:39.272Z,98536.50
2022-07-26T10:21:25.811Z,98532.19
2022-07-26T10:24:03.874Z,98523.56
2022-07-26T10:26:34.089Z,98525.84
2022-07-26T10:29:21.818Z,98521.56
2022-07-26T10:32:15.782Z,98530.69
2022-07-26T10:34:43.454Z,98515.88
2022-07-26T10:37:21.252Z,98515.91
2022-07-26T10:39:48.312Z,98500.44
2022-07-26T10:42:15.552Z,98516.25
2022-07-26T10:44:45.455Z,98516.69
2022-07-26T10:47:16.084Z,98501.72
2022-07-26T10:49:54.002Z,98511.31
2022-07-26T10:52:25.155Z,98508.69
2022-07-26T10:54:58.461Z,98510.84
2022-07-26T10:57:33.899Z,98508.63
2022-07-26T11:00:12.222Z,98508.88
2022-07-26T11:02:41.354Z,98503.84
2022-07-26T11:05:14.598Z,98507.59
2022-07-26T11:08:11.039Z,98505.25
2022-07-26T11:10:43.999Z,98492.31
2022-07-26T11:13:12.673Z,98506.25
2022-07-26T11:15:48.866Z,98502.34
2022-07-26T11:18:27.938Z,98499.25
2022-07-26T11:20:57.271Z,98484.81
2022-07-26T11:23:26.982Z,98490.53
2022-07-26T11:26:03.013Z,98497.78
2022-07-26T11:28:30.212Z,98483.44
2022-07-26T11:31:00.814Z,98476.63
2022-07-26T11:33:42.509Z,98495.16
2022-07-26T11:36:10.103Z,98499.28
2022-07-26T11:38:52.030Z,98488.84
2022-07-26T11:41:34.483Z,98480.59
2022-07-26T11:44:03.776Z,98482.94
2022-07-26T11:46:39.875Z,98484.28
2022-07-26T11:49:19.373Z,98480.44
2022-07-26T11:51:51.884Z,98470.06
2022-07-26T11:54:19.700Z,98476.56
2022-07-26T11:56:55.825Z,98476.56
2022-07-26T11:59:25.463Z,98477.06
2022-07-26T12:01:53.996Z,98466.41
2022-07-26T12:04:27.587Z,98466.03
2022-07-26T12:07:01.266Z,98463.31
2022-07-26T12:09:52.294Z,98461.47
2022-07-26T12:12:31.968Z,98454.59
2022-07-26T12:15:05.698Z,98448.03
2022-07-26T12:17:35.987Z,98434.88
2022-07-26T12:20:18.019Z,98431.56
2022-07-26T12:23:05.192Z,98456.16
2022-07-26T12:25:32.344Z,98444.09
2022-07-26T12:27:59.447Z,98446.63
2022-07-26T12:30:30.817Z,98442.88
2022-07-26T12:33:02.336Z,98442.19
2022-07-26T12:36:02.653Z,98452.28
2022-07-26T12:38:40.282Z,98455.09
2022-07-26T12:41:07.276Z,98456.44
2022-07-26T12:43:41.457Z,98429.44
2022-07-26T12:46:08.461Z,98443.00
2022-07-26T12:48:37.375Z,98439.59
2022-07-26T12:51:04.865Z,98422.28
2022-07-26T12:53:36.305Z,98429.19
2022-07-26T12:56:03.209Z,98431.63
2022-07-26T12:58:32.539Z,98435.56
2022-07-26T13:00:59.646Z,98415.69
2022-07-26T13:03:26.715Z,98412.34
2022-07-26T13:05:53.865Z,98419.63
2022-07-26T13:08:21.195Z,98422.88
2022-07-26T13:10:48.194Z,98427.38
2022-07-26T13:13:18.453Z,98410.06
2022-07-26T13:15:47.033Z,98416.97
2022-07-26T13:18:13.945Z,98423.25
2022-07-26T13:20:40.984Z,98418.75
2022-07-26T13:23:13.839Z,98417.25
2022-07-26T13:25:43.080Z,98412.09
2022-07-26T13:28:10.436Z,98415.38
2022-07-26T13:30:39.364Z,98424.66
2022-07-26T13:33:07.088Z,98415.22
2022-07-26T13:35:34.017Z,98405.47
2022-07-26T13:38:01.073Z,98401.91
2022-07-26T13:40:31.516Z,98414.34
2022-07-26T13:42:59.215Z,98411.44
2022-07-26T13:45:29.465Z,98417.94
2022-07-26T13:47:59.008Z,98396.78
2022-07-26T13:50:27.143Z,98398.84
2022-07-26T13:52:56.467Z,98407.91
2022-07-26T13:55:24.213Z,98407.25
2022-07-26T13:57:57.015Z,98408.13
2022-07-26T14:00:29.146Z,98404.16
2022-07-26T14:02:58.768Z,98391.81
2022-07-26T14:05:26.891Z,98396.97
2022-07-26T14:07:54.508Z,98398.78
2022-07-26T14:10:22.605Z,98397.34
2022-07-26T14:12:49.950Z,98394.41
2022-07-26T14:15:22.097Z,98391.69
2022-07-26T14:17:53.713Z,98400.44
2022-07-26T14:20:21.853Z,98402.69
2022-07-26T14:22:53.691Z,98397.84
2022-07-26T14:25:22.203Z,98402.03
2022-07-26T14:27:54.021Z,98406.16
2022-07-26T14:30:22.480Z,98398.22
2022-07-26T14:32:53.573Z,98373.25
2022-07-26T14:35:20.684Z,98390.47
2022-07-26T14:37:47.687Z,98392.88
2022-07-26T14:40:17.131Z,98398.50
2022-07-26T14:42:45.749Z,98406.97
2022-07-26T14:45:13.622Z,98401.34
2022-07-26T14:47:41.293Z,98401.84
2022-07-26T14:50:09.974Z,98394.75
2022-07-26T14:52:38.823Z,98374.63
2022-07-26T14:55:07.095Z,98390.47
2022-07-26T14:57:34.603Z,98390.34
2022-07-26T15:00:12.676Z,98390.56
2022-07-26T15:02:45.836Z,98390.84
2022-07-26T15:05:14.257Z,98390.34
2022-07-26T15:07:42.530Z,98402.00
2022-07-26T15:10:11.499Z,98398.69
2022-07-26T15:12:38.926Z,98397.53
2022-07-26T15:15:07.355Z,98383.75
2022-07-26T15:17:34.967Z,98397.13
2022-07-26T15:20:03.732Z,98391.22
2022-07-26T15:22:30.922Z,98394.41
2022-07-26T15:24:57.917Z,98397.78
2022-07-26T15:27:24.824Z,98391.72
2022-07-26T15:29:52.507Z,98404.72
2022-07-26T15:32:21.394Z,98404.03
2022-07-26T15:34:48.579Z,98389.41
2022-07-26T15:37:15.546Z,98397.16
2022-07-26T15:39:43.103Z,98400.91
2022-07-26T15:42:10.208Z,98407.53
2022-07-26T15:44:41.254Z,98399.78
2022-07-26T15:47:08.335Z,98400.13
2022-07-26T15:49:40.525Z,98400.63
2022-07-26T15:52:10.592Z,98396.06
2022-07-26T15:54:37.883Z,98409.22
2022-07-26T15:57:05.043Z,98411.59
2022-07-26T15:59:31.944Z,98401.31
2022-07-26T16:01:59.130Z,98407.53
2022-07-26T16:04:26.323Z,98412.22
2022-07-26T16:06:53.233Z,98407.16
2022-07-26T16:09:20.269Z,98416.09
2022-07-26T16:11:49.211Z,98420.81
2022-07-26T16:14:17.195Z,98420.09
2022-07-26T16:16:44.802Z,98424.31
2022-07-26T16:19:12.533Z,98432.41
2022-07-26T16:21:40.648Z,98439.78
2022-07-26T16:24:08.447Z,98431.28
2022-07-26T16:26:36.344Z,98435.47
2022-07-26T16:29:05.567Z,98434.41
2022-07-26T16:31:32.829Z,98435.94
2022-07-26T16:34:00.285Z,98437.03
2022-07-26T16:36:27.806Z,98434.13
2022-07-26T16:38:54.938Z,98436.56
2022-07-26T16:41:22.093Z,98436.19
2022-07-26T16:43:49.046Z,98428.84
2022-07-26T16:46:16.518Z,98441.84
2022-07-26T16:48:43.641Z,98436.34
2022-07-26T16:51:11.714Z,98437.09
2022-07-26T16:53:38.906Z,98436.03
2022-07-26T16:56:06.184Z,98438.34
2022-07-26T16:58:33.275Z,98441.97
2022-07-26T17:01:00.778Z,98446.28
2022-07-26T17:03:28.165Z,98449.72
2022-07-26T17:05:55.227Z,98456.44
2022-07-26T17:08:23.014Z,98451.09
2022-07-26T17:10:51.055Z,98455.84
2022-07-26T17:13:18.194Z,98469.00
2022-07-26T17:15:45.278Z,98468.94
2022-07-26T17:18:12.405Z,98461.00
2022-07-26T17:20:39.488Z,98457.69
2022-07-26T17:23:06.656Z,98481.63
2022-07-26T17:25:33.864Z,98481.94
2022-07-26T17:28:00.961Z,98485.19
2022-07-26T17:30:28.225Z,98485.91
2022-07-26T17:32:55.530Z,98491.59
2022-07-26T17:35:22.646Z,98483.28
2022-07-26T17:37:49.736Z,98490.06
2022-07-26T17:40:17.222Z,98505.06
2022-07-26T17:42:44.335Z,98515.63
2022-07-26T17:45:11.506Z,98517.16
2022-07-26T17:47:38.643Z,98519.28
2022-07-26T17:50:35.311Z,98531.41
2022-07-26T17:52:54.542Z,98538.16
2022-07-26T17:55:21.915Z,98547.88
2022-07-26T17:57:50.044Z,98551.72
2022-07-26T18:00:19.570Z,98551.78
2022-07-26T18:02:47.770Z,98553.56
2022-07-26T18:05:15.098Z,98560.84
2022-07-26T18:07:42.192Z,98581.88
2022-07-26T18:10:10.325Z,98573.06
2022-07-26T18:12:37.508Z,98575.44
2022-07-26T18:15:06.484Z,98586.63
2022-07-26T18:17:33.650Z,98592.25
2022-07-26T18:20:00.647Z,98584.41
2022-07-26T18:22:27.672Z,98596.25
2022-07-26T18:24:55.056Z,98597.59
2022-07-26T18:27:22.456Z,98595.19
2022-07-26T18:29:49.888Z,98595.13
2022-07-26T18:32:17.080Z,98602.81
2022-07-26T18:34:51.452Z,98607.22
2022-07-26T18:37:20.730Z,98614.41
2022-07-26T18:39:51.545Z,98599.69
2022-07-26T18:42:21.512Z,98618.69
2022-07-26T18:44:48.649Z,98623.69
2022-07-26T18:47:15.836Z,98625.75
2022-07-26T18:49:43.788Z,98627.38
2022-07-26T18:52:10.833Z,98631.16
2022-07-26T18:54:38.697Z,98641.88
2022-07-26T18:57:05.775Z,98664.16
2022-07-26T18:59:33.086Z,98671.31
2022-07-26T19:02:01.063Z,98692.25
2022-07-26T19:04:28.491Z,98701.44
2022-07-26T19:06:55.936Z,98708.13
2022-07-26T19:09:23.055Z,98711.03
2022-07-26T19:11:50.634Z,98705.91
2022-07-26T19:17:16.942Z,98724.84
2022-07-26T19:19:58.736Z,98737.75
2022-07-26T19:22:26.885Z,98735.53
2022-07-26T19:24:54.505Z,98739.50
2022-07-26T19:27:21.730Z,98735.78
2022-07-26T19:29:49.184Z,98723.13
2022-07-26T19:32:16.735Z,98711.81
2022-07-26T19:34:44.164Z,98721.53
2022-07-26T19:37:11.645Z,98726.94
2022-07-26T19:39:38.772Z,98717.34
2022-07-26T19:42:06.276Z,98731.34
2022-07-26T19:44:33.435Z,98730.50
2022-07-26T19:47:00.375Z,98725.59
2022-07-26T19:49:27.479Z,98732.72
2022-07-26T19:51:54.614Z,98726.25
2022-07-26T19:54:21.653Z,98729.03
2022-07-26T19:56:48.727Z,98717.00
2022-07-26T19:59:20.930Z,98717.66
2022-07-26T20:01:52.344Z,98704.38
2022-07-26T20:04:19.462Z,98707.88
2022-07-26T20:06:46.468Z,98713.00
2022-07-26T20:09:14.118Z,98707.25
2022-07-26T20:11:41.483Z,98707.16
2022-07-26T20:14:08.605Z,98714.84
2022-07-26T20:16:35.669Z,98718.34
2022-07-26T20:19:02.615Z,98726.66
2022-07-26T20:21:30.514Z,98727.16
2022-07-26T20:23:57.540Z,98727.91
2022-07-26T20:26:24.600Z,98743.50
2022-07-26T20:28:51.507Z,98772.06
2022-07-26T20:31:18.687Z,98778.22
2022-07-26T20:33:45.855Z,98786.13
2022-07-26T20:36:12.859Z,98792.22
2022-07-26T20:38:39.887Z,98801.09
2022-07-26T20:41:07.002Z,98799.06
2022-07-26T20:43:34.504Z,98793.09
2022-07-26T20:46:01.591Z,98787.16
2022-07-26T20:48:28.674Z,98787.97
2022-07-26T20:50:55.800Z,98786.41
2022-07-26T20:53:22.800Z,98797.00
2022-07-26T20:55:49.908Z,98796.47
2022-07-26T20:58:18.119Z,98801.06
2022-07-26T21:00:45.265Z,98814.19
2022-07-26T21:03:13.983Z,98819.31
2022-07-26T21:05:40.939Z,98830.91
2022-07-26T21:08:08.255Z,98838.25
2022-07-26T21:10:35.627Z,98845.53
2022-07-26T21:13:02.813Z,98836.69
2022-07-26T21:15:30.548Z,98833.88
2022-07-26T21:17:58.594Z,98837.44
2022-07-26T21:20:25.876Z,98845.53
2022-07-26T21:22:52.958Z,98847.22
2022-07-26T21:25:19.967Z,98843.91
2022-07-26T21:27:47.007Z,98844.53
2022-07-26T21:30:14.318Z,98844.72
2022-07-26T21:32:41.381Z,98840.13
2022-07-26T21:35:08.531Z,98844.94
2022-07-26T21:37:35.428Z,98855.59
2022-07-26T21:40:02.444Z,98854.84
2022-07-26T21:42:29.469Z,98863.03
2022-07-26T21:44:56.516Z,98859.63
2022-07-26T21:47:23.473Z,98871.34
2022-07-26T21:49:50.443Z,98874.22
2022-07-26T21:52:17.471Z,98872.69
2022-07-26T21:54:44.462Z,98880.78
2022-07-26T21:57:11.646Z,98874.69
2022-07-26T21:59:38.642Z,98877.66
2022-07-26T22:02:05.828Z,98878.34
2022-07-26T22:04:32.935Z,98881.03
2022-07-26T22:07:00.009Z,98883.13
2022-07-26T22:09:27.071Z,98880.34
2022-07-26T22:11:54.254Z,98881.50
2022-07-26T22:14:22.147Z,98886.09
2022-07-26T22:16:49.439Z,98888.09
2022-07-26T22:19:16.638Z,98888.50
2022-07-26T22:21:43.889Z,98891.72
2022-07-26T22:24:11.259Z,98882.78
2022-07-26T22:26:38.313Z,98884.41
2022-07-26T22:29:05.380Z,98892.81
2022-07-26T22:31:32.692Z,98892.31
2022-07-26T22:33:59.785Z,98887.09
2022-07-26T22:36:27.236Z,98896.00
2022-07-26T22:38:54.279Z,98888.22
2022-07-26T22:41:21.295Z,98893.25
2022-07-26T22:43:48.396Z,98895.63
2022-07-26T22:46:27.901Z,98903.63
2022-07-26T22:48:56.608Z,98901.22
2022-07-26T22:51:23.467Z,98905.03
2022-07-26T22:53:50.348Z,98910.34
2022-07-26T22:56:19.809Z,98901.69
2022-07-26T22:58:47.236Z,98902.56
2022-07-26T23:01:14.696Z,98905.56
2022-07-26T23:03:41.671Z,98895.13
2022-07-26T23:06:25.943Z,98898.34
2022-07-26T23:08:58.698Z,98904.44
2022-07-26T23:11:25.600Z,98901.13
2022-07-26T23:13:59.066Z,98906.47
2022-07-26T23:16:26.966Z,98901.81
2022-07-26T23:18:53.997Z,98910.34
2022-07-26T23:21:21.001Z,98910.72
2022-07-26T23:23:47.994Z,98912.94
2022-07-26T23:26:15.055Z,98908.59
2022-07-26T23:28:42.020Z,98913.13
2022-07-26T23:31:11.822Z,98913.25
2022-07-26T23:33:53.370Z,98914.69
2022-07-26T23:36:25.863Z,98913.31
2022-07-26T23:38:57.162Z,98904.16
2022-07-26T23:41:24.273Z,98909.22
2022-07-26T23:43:52.330Z,98907.50
2022-07-26T23:46:19.302Z,98908.13
2022-07-26T23:48:46.840Z,98918.75
2022-07-26T23:51:13.985Z,98904.78
2022-07-26T23:53:41.495Z,98912.56
2022-07-26T23:56:08.479Z,98902.94
2022-07-26T23:58:35.489Z,98904.97
